Emory, Utah
Current Conditions -  °F | °C
As of 11:58 PM on Thursday 30 Oct 2014 (Local Time) from KHIF Reporting Station
Clear Clear  
Wind Chill: 59°   Ceiling: Unl
Heat Index: 59°   Visibility: 10mi
Dew Point: 26°   Wind: 13mph
Humidity: 28%   Direction: 140°SE
Pressure: 30.1"   Gusts: NA
Location:  40.9775°N, 111.442°W
Report Text: KHIF 310558Z AUTO 14011KT 10SM CLR 15/M03 A3010 RMK AO2 SLP156 T01491034 10171 20109 57006
Loading
Personal Weather Stations






























Interactive Weather Map
Tropical Storm Tracking
New forecast layout! Learn more

10-Day Weather Forecast

Advertisements
Track Severe Weather on mobile